메인 페이지
METAR-TAF:

METAR-TAF

공항 :

Guymon, 오클라호마, 미국

위도: 36-40-54N, 경도: 101-30-19W, 고도: 952m

현재 날씨관측

예보는 29분 전, 15:53시(UTC)에 발표되었습니다.
8kt
온도 8°C
습도 31%
기압 1027 hPa
시정: 16.1km
맑음

METAR: KGUY 161553Z AUTO 35008KT 10SM CLR 08/M08 A3033 RMK AO2 SLP270 T00781078

시각: 10:22 (16:22 UTC)

예보

예보는 5 시간 2분 전, 11:20시(UTC)에 발표되었습니다.
예보 대상 시간: 16일 12시부터 17일 12시까지 (UTC)
북북서8kt
시정: 10km
고도 25000ft 상공 구름 조금
16일 2200시부터 (UTC)
북북동6kt
시정: 10km
고도 25000ft 상공 구름 조금
17일 0200시부터 (UTC)
여러 방향의 바람 4kt
시정: 10km
맑음

TAF: KGUY 161120Z 1612/1712 33008KT P6SM FEW250 FM162200 03006KT P6SM FEW250 FM170200 VRB04KT P6SM SKC

4,000개 이상의 공항 관측 자료 및 예보 (METAR 및 TAF 보고).

지도상에서 검색 가능한 기상관측소가 노란 점과 빨간 점으로 표시되어 있습니다.

기상관측소 명을 보려면 표시 위로 마우스를 이동하세요.

날씨 관측과 예보를 보려면 클릭하세요.

지도 변경 : 확대하려면 엑스 표시가 있는 녹색 버튼, 축소하려면 빼기 표시가 있는 녹색 버튼, 다음 페이지의 지도를 보려면 녹색 화살표를 클릭하세요.


METAR-TAF: